sensor_id;sensor_type;location;lat;lon;timestamp;P1;durP1;ratioP1;P2;durP2;ratioP2
30287;SDS011;17103;48.316;11.558;2022-10-31T00:02:11;8.82;;;4.25;;
30287;SDS011;17103;48.316;11.558;2022-10-31T00:04:36;12.40;;;5.47;;
30287;SDS011;17103;48.316;11.558;2022-10-31T00:07:02;8.57;;;4.38;;
30287;SDS011;17103;48.316;11.558;2022-10-31T00:09:27;8.02;;;4.53;;
30287;SDS011;17103;48.316;11.558;2022-10-31T00:11:53;8.43;;;4.78;;
30287;SDS011;17103;48.316;11.558;2022-10-31T00:14:19;6.90;;;4.03;;
30287;SDS011;17103;48.316;11.558;2022-10-31T00:16:44;10.07;;;4.32;;
30287;SDS011;17103;48.316;11.558;2022-10-31T00:19:10;14.18;;;4.65;;
30287;SDS011;17103;48.316;11.558;2022-10-31T00:21:35;8.15;;;4.40;;
30287;SDS011;17103;48.316;11.558;2022-10-31T00:24:01;8.95;;;4.10;;
30287;SDS011;17103;48.316;11.558;2022-10-31T00:26:28;9.75;;;5.03;;
30287;SDS011;17103;48.316;11.558;2022-10-31T00:28:56;11.95;;;5.30;;
30287;SDS011;17103;48.316;11.558;2022-10-31T00:31:22;9.45;;;5.03;;
30287;SDS011;17103;48.316;11.558;2022-10-31T00:33:48;9.23;;;6.00;;
30287;SDS011;17103;48.316;11.558;2022-10-31T00:36:15;10.65;;;5.82;;
30287;SDS011;17103;48.316;11.558;2022-10-31T00:38:42;10.68;;;5.30;;
30287;SDS011;17103;48.316;11.558;2022-10-31T00:41:10;11.75;;;5.60;;
30287;SDS011;17103;48.316;11.558;2022-10-31T00:43:37;9.15;;;5.22;;
30287;SDS011;17103;48.316;11.558;2022-10-31T00:46:03;8.15;;;4.95;;
30287;SDS011;17103;48.316;11.558;2022-10-31T00:48:29;8.48;;;4.72;;
30287;SDS011;17103;48.316;11.558;2022-10-31T00:50:55;12.15;;;5.18;;
30287;SDS011;17103;48.316;11.558;2022-10-31T00:53:21;9.38;;;5.20;;
30287;SDS011;17103;48.316;11.558;2022-10-31T00:55:46;12.27;;;5.32;;
30287;SDS011;17103;48.316;11.558;2022-10-31T00:58:12;8.77;;;5.32;;
30287;SDS011;17103;48.316;11.558;2022-10-31T01:00:38;8.77;;;4.47;;
30287;SDS011;17103;48.316;11.558;2022-10-31T01:03:03;6.60;;;5.22;;
30287;SDS011;17103;48.316;11.558;2022-10-31T01:05:29;15.43;;;5.63;;
30287;SDS011;17103;48.316;11.558;2022-10-31T01:07:55;10.48;;;5.22;;
30287;SDS011;17103;48.316;11.558;2022-10-31T01:10:21;9.13;;;5.25;;
30287;SDS011;17103;48.316;11.558;2022-10-31T01:12:48;13.73;;;6.00;;
30287;SDS011;17103;48.316;11.558;2022-10-31T01:15:18;10.57;;;5.15;;
30287;SDS011;17103;48.316;11.558;2022-10-31T01:17:46;8.82;;;4.85;;
30287;SDS011;17103;48.316;11.558;2022-10-31T01:20:13;9.40;;;4.93;;
30287;SDS011;17103;48.316;11.558;2022-10-31T01:22:41;7.38;;;4.38;;
30287;SDS011;17103;48.316;11.558;2022-10-31T01:25:08;8.23;;;4.00;;
30287;SDS011;17103;48.316;11.558;2022-10-31T01:27:34;8.00;;;4.53;;
30287;SDS011;17103;48.316;11.558;2022-10-31T01:30:00;6.10;;;4.55;;
30287;SDS011;17103;48.316;11.558;2022-10-31T01:32:26;11.52;;;4.22;;
30287;SDS011;17103;48.316;11.558;2022-10-31T01:34:54;7.80;;;4.60;;
30287;SDS011;17103;48.316;11.558;2022-10-31T01:37:20;6.70;;;4.30;;
30287;SDS011;17103;48.316;11.558;2022-10-31T01:39:48;8.32;;;4.57;;
30287;SDS011;17103;48.316;11.558;2022-10-31T01:42:18;9.02;;;4.82;;
30287;SDS011;17103;48.316;11.558;2022-10-31T01:44:51;9.10;;;4.10;;
30287;SDS011;17103;48.316;11.558;2022-10-31T01:47:30;5.35;;;3.60;;
30287;SDS011;17103;48.316;11.558;2022-10-31T01:50:03;5.82;;;3.80;;
30287;SDS011;17103;48.316;11.558;2022-10-31T01:52:48;5.68;;;3.63;;
30287;SDS011;17103;48.316;11.558;2022-10-31T01:55:29;8.80;;;4.30;;
30287;SDS011;17103;48.316;11.558;2022-10-31T01:57:59;10.23;;;4.13;;
30287;SDS011;17103;48.316;11.558;2022-10-31T02:00:30;11.02;;;5.63;;
30287;SDS011;17103;48.316;11.558;2022-10-31T02:02:56;13.10;;;4.40;;
30287;SDS011;17103;48.316;11.558;2022-10-31T02:05:25;9.40;;;4.55;;
30287;SDS011;17103;48.316;11.558;2022-10-31T02:08:04;7.00;;;3.60;;
30287;SDS011;17103;48.316;11.558;2022-10-31T02:10:36;9.18;;;3.80;;
30287;SDS011;17103;48.316;11.558;2022-10-31T02:13:04;9.45;;;4.28;;
30287;SDS011;17103;48.316;11.558;2022-10-31T02:15:33;5.88;;;3.60;;
30287;SDS011;17103;48.316;11.558;2022-10-31T02:20:44;7.07;;;3.65;;
30287;SDS011;17103;48.316;11.558;2022-10-31T02:31:16;7.55;;;3.25;;
30287;SDS011;17103;48.316;11.558;2022-10-31T02:39:36;10.00;;;4.00;;
30287;SDS011;17103;48.316;11.558;2022-10-31T02:45:29;8.52;;;4.85;;
30287;SDS011;17103;48.316;11.558;2022-10-31T02:48:02;8.00;;;3.72;;
30287;SDS011;17103;48.316;11.558;2022-10-31T02:53:01;6.45;;;3.35;;
30287;SDS011;17103;48.316;11.558;2022-10-31T02:57:56;6.80;;;3.60;;
30287;SDS011;17103;48.316;11.558;2022-10-31T03:00:26;8.00;;;3.80;;
30287;SDS011;17103;48.316;11.558;2022-10-31T03:08:59;3.97;;;3.15;;
30287;SDS011;17103;48.316;11.558;2022-10-31T03:11:32;5.55;;;3.88;;
30287;SDS011;17103;48.316;11.558;2022-10-31T03:14:26;6.22;;;3.58;;
30287;SDS011;17103;48.316;11.558;2022-10-31T03:16:59;7.07;;;4.38;;
30287;SDS011;17103;48.316;11.558;2022-10-31T03:19:32;6.63;;;3.67;;
30287;SDS011;17103;48.316;11.558;2022-10-31T03:22:12;5.18;;;3.40;;
30287;SDS011;17103;48.316;11.558;2022-10-31T03:24:43;7.00;;;3.28;;
30287;SDS011;17103;48.316;11.558;2022-10-31T03:27:10;5.57;;;3.20;;
30287;SDS011;17103;48.316;11.558;2022-10-31T03:29:38;6.70;;;2.85;;
30287;SDS011;17103;48.316;11.558;2022-10-31T03:32:17;8.30;;;3.85;;
30287;SDS011;17103;48.316;11.558;2022-10-31T03:34:47;8.10;;;3.13;;
30287;SDS011;17103;48.316;11.558;2022-10-31T03:37:16;4.32;;;3.13;;
30287;SDS011;17103;48.316;11.558;2022-10-31T03:39:44;5.82;;;3.05;;
30287;SDS011;17103;48.316;11.558;2022-10-31T03:42:22;7.55;;;3.28;;
30287;SDS011;17103;48.316;11.558;2022-10-31T03:44:52;5.28;;;2.85;;
30287;SDS011;17103;48.316;11.558;2022-10-31T03:47:22;5.50;;;3.28;;
30287;SDS011;17103;48.316;11.558;2022-10-31T03:49:48;7.63;;;3.47;;
30287;SDS011;17103;48.316;11.558;2022-10-31T03:52:24;8.82;;;2.92;;
30287;SDS011;17103;48.316;11.558;2022-10-31T04:03:32;5.93;;;3.33;;
30287;SDS011;17103;48.316;11.558;2022-10-31T04:05:45;5.07;;;2.90;;
30287;SDS011;17103;48.316;11.558;2022-10-31T04:08:15;7.70;;;3.45;;
30287;SDS011;17103;48.316;11.558;2022-10-31T04:10:44;10.68;;;3.25;;
30287;SDS011;17103;48.316;11.558;2022-10-31T04:13:16;7.05;;;3.08;;
30287;SDS011;17103;48.316;11.558;2022-10-31T04:15:47;5.80;;;2.75;;
30287;SDS011;17103;48.316;11.558;2022-10-31T04:18:15;5.38;;;3.25;;
30287;SDS011;17103;48.316;11.558;2022-10-31T04:20:41;6.32;;;2.72;;
30287;SDS011;17103;48.316;11.558;2022-10-31T04:23:25;6.05;;;2.85;;
30287;SDS011;17103;48.316;11.558;2022-10-31T04:25:52;4.80;;;2.67;;
30287;SDS011;17103;48.316;11.558;2022-10-31T04:28:17;5.80;;;2.80;;
30287;SDS011;17103;48.316;11.558;2022-10-31T04:30:43;3.92;;;2.58;;
30287;SDS011;17103;48.316;11.558;2022-10-31T04:33:11;7.35;;;3.53;;
30287;SDS011;17103;48.316;11.558;2022-10-31T04:35:37;6.88;;;2.70;;
30287;SDS011;17103;48.316;11.558;2022-10-31T04:38:03;9.10;;;3.13;;
30287;SDS011;17103;48.316;11.558;2022-10-31T04:40:31;9.45;;;2.90;;
30287;SDS011;17103;48.316;11.558;2022-10-31T04:42:57;5.30;;;3.25;;
30287;SDS011;17103;48.316;11.558;2022-10-31T04:45:22;4.13;;;2.60;;
30287;SDS011;17103;48.316;11.558;2022-10-31T04:47:48;8.65;;;3.85;;
30287;SDS011;17103;48.316;11.558;2022-10-31T04:50:14;7.18;;;2.78;;
30287;SDS011;17103;48.316;11.558;2022-10-31T04:52:40;6.95;;;3.45;;
30287;SDS011;17103;48.316;11.558;2022-10-31T04:55:06;4.75;;;3.42;;
30287;SDS011;17103;48.316;11.558;2022-10-31T04:57:39;6.85;;;3.20;;
30287;SDS011;17103;48.316;11.558;2022-10-31T05:00:09;5.07;;;3.03;;
30287;SDS011;17103;48.316;11.558;2022-10-31T05:02:43;6.72;;;3.30;;
30287;SDS011;17103;48.316;11.558;2022-10-31T05:05:10;7.53;;;3.45;;
30287;SDS011;17103;48.316;11.558;2022-10-31T05:07:40;6.22;;;2.83;;
30287;SDS011;17103;48.316;11.558;2022-10-31T05:10:21;10.27;;;3.97;;
30287;SDS011;17103;48.316;11.558;2022-10-31T05:12:51;8.50;;;2.55;;
30287;SDS011;17103;48.316;11.558;2022-10-31T05:15:19;5.85;;;2.38;;
30287;SDS011;17103;48.316;11.558;2022-10-31T05:17:46;5.63;;;2.60;;
30287;SDS011;17103;48.316;11.558;2022-10-31T05:20:13;8.32;;;3.63;;
30287;SDS011;17103;48.316;11.558;2022-10-31T05:22:43;5.45;;;3.08;;
30287;SDS011;17103;48.316;11.558;2022-10-31T05:25:10;6.10;;;3.20;;
30287;SDS011;17103;48.316;11.558;2022-10-31T05:27:43;6.68;;;2.75;;
30287;SDS011;17103;48.316;11.558;2022-10-31T05:30:11;6.13;;;3.10;;
30287;SDS011;17103;48.316;11.558;2022-10-31T05:32:39;5.80;;;3.17;;
30287;SDS011;17103;48.316;11.558;2022-10-31T05:35:06;5.88;;;2.80;;
30287;SDS011;17103;48.316;11.558;2022-10-31T05:37:36;6.43;;;3.40;;
30287;SDS011;17103;48.316;11.558;2022-10-31T05:40:03;6.55;;;3.78;;
30287;SDS011;17103;48.316;11.558;2022-10-31T05:42:30;6.22;;;2.75;;
30287;SDS011;17103;48.316;11.558;2022-10-31T05:44:56;6.47;;;2.83;;
30287;SDS011;17103;48.316;11.558;2022-10-31T05:47:21;4.90;;;3.00;;
30287;SDS011;17103;48.316;11.558;2022-10-31T05:49:47;4.95;;;2.90;;
30287;SDS011;17103;48.316;11.558;2022-10-31T05:52:13;6.95;;;2.80;;
30287;SDS011;17103;48.316;11.558;2022-10-31T05:54:39;7.60;;;2.45;;
30287;SDS011;17103;48.316;11.558;2022-10-31T05:57:04;5.28;;;2.97;;
30287;SDS011;17103;48.316;11.558;2022-10-31T05:59:30;5.00;;;3.13;;
30287;SDS011;17103;48.316;11.558;2022-10-31T06:01:56;4.32;;;2.95;;
30287;SDS011;17103;48.316;11.558;2022-10-31T06:04:21;6.25;;;3.25;;
30287;SDS011;17103;48.316;11.558;2022-10-31T06:06:47;5.35;;;2.95;;
30287;SDS011;17103;48.316;11.558;2022-10-31T06:09:13;4.57;;;2.50;;
30287;SDS011;17103;48.316;11.558;2022-10-31T06:11:38;5.70;;;2.92;;
30287;SDS011;17103;48.316;11.558;2022-10-31T06:14:04;9.35;;;4.35;;
30287;SDS011;17103;48.316;11.558;2022-10-31T06:16:30;5.78;;;2.63;;
30287;SDS011;17103;48.316;11.558;2022-10-31T06:18:56;7.57;;;2.80;;
30287;SDS011;17103;48.316;11.558;2022-10-31T06:21:22;7.40;;;3.17;;
30287;SDS011;17103;48.316;11.558;2022-10-31T06:23:48;7.53;;;2.90;;
30287;SDS011;17103;48.316;11.558;2022-10-31T06:26:14;6.78;;;3.22;;
30287;SDS011;17103;48.316;11.558;2022-10-31T06:28:39;8.38;;;2.90;;
30287;SDS011;17103;48.316;11.558;2022-10-31T06:31:05;7.90;;;3.40;;
30287;SDS011;17103;48.316;11.558;2022-10-31T06:33:31;6.13;;;3.35;;
30287;SDS011;17103;48.316;11.558;2022-10-31T06:35:57;4.90;;;3.22;;
30287;SDS011;17103;48.316;11.558;2022-10-31T06:38:22;7.13;;;3.22;;
30287;SDS011;17103;48.316;11.558;2022-10-31T06:40:48;7.25;;;3.60;;
30287;SDS011;17103;48.316;11.558;2022-10-31T06:43:14;7.72;;;5.15;;
30287;SDS011;17103;48.316;11.558;2022-10-31T06:48:08;20.15;;;13.65;;
30287;SDS011;17103;48.316;11.558;2022-10-31T06:50:34;16.70;;;10.98;;
30287;SDS011;17103;48.316;11.558;2022-10-31T06:52:59;12.82;;;9.55;;
30287;SDS011;17103;48.316;11.558;2022-10-31T06:55:25;14.25;;;8.73;;
30287;SDS011;17103;48.316;11.558;2022-10-31T06:57:56;13.18;;;8.32;;
30287;SDS011;17103;48.316;11.558;2022-10-31T07:00:25;12.35;;;8.40;;
30287;SDS011;17103;48.316;11.558;2022-10-31T07:02:55;11.55;;;8.13;;
30287;SDS011;17103;48.316;11.558;2022-10-31T07:05:31;12.98;;;7.10;;
30287;SDS011;17103;48.316;11.558;2022-10-31T07:07:58;13.77;;;8.32;;
30287;SDS011;17103;48.316;11.558;2022-10-31T07:10:26;11.20;;;7.50;;
30287;SDS011;17103;48.316;11.558;2022-10-31T07:13:01;11.65;;;7.05;;
30287;SDS011;17103;48.316;11.558;2022-10-31T07:15:29;9.70;;;5.80;;
30287;SDS011;17103;48.316;11.558;2022-10-31T07:17:59;7.15;;;4.47;;
30287;SDS011;17103;48.316;11.558;2022-10-31T07:20:30;9.07;;;3.90;;
30287;SDS011;17103;48.316;11.558;2022-10-31T07:23:00;9.10;;;4.72;;
30287;SDS011;17103;48.316;11.558;2022-10-31T07:25:27;10.27;;;4.47;;
30287;SDS011;17103;48.316;11.558;2022-10-31T07:27:54;8.55;;;4.88;;
30287;SDS011;17103;48.316;11.558;2022-10-31T07:30:20;8.43;;;3.90;;
30287;SDS011;17103;48.316;11.558;2022-10-31T07:32:51;5.07;;;3.55;;
30287;SDS011;17103;48.316;11.558;2022-10-31T07:35:18;6.10;;;3.58;;
30287;SDS011;17103;48.316;11.558;2022-10-31T07:37:47;7.20;;;3.15;;
30287;SDS011;17103;48.316;11.558;2022-10-31T07:40:18;7.13;;;3.42;;
30287;SDS011;17103;48.316;11.558;2022-10-31T07:42:51;6.15;;;3.20;;
30287;SDS011;17103;48.316;11.558;2022-10-31T07:45:19;7.00;;;3.30;;
30287;SDS011;17103;48.316;11.558;2022-10-31T07:47:47;7.25;;;2.92;;
30287;SDS011;17103;48.316;11.558;2022-10-31T07:50:24;10.32;;;3.45;;
30287;SDS011;17103;48.316;11.558;2022-10-31T07:53:06;8.25;;;2.67;;
30287;SDS011;17103;48.316;11.558;2022-10-31T07:55:34;7.35;;;2.60;;
30287;SDS011;17103;48.316;11.558;2022-10-31T07:58:03;6.00;;;2.88;;
30287;SDS011;17103;48.316;11.558;2022-10-31T08:00:32;8.18;;;3.88;;
30287;SDS011;17103;48.316;11.558;2022-10-31T08:03:05;6.70;;;3.75;;
30287;SDS011;17103;48.316;11.558;2022-10-31T08:05:33;11.02;;;3.90;;
30287;SDS011;17103;48.316;11.558;2022-10-31T08:08:01;10.55;;;4.43;;
30287;SDS011;17103;48.316;11.558;2022-10-31T08:10:30;10.43;;;5.25;;
30287;SDS011;17103;48.316;11.558;2022-10-31T08:13:12;14.70;;;8.55;;
30287;SDS011;17103;48.316;11.558;2022-10-31T08:15:41;13.82;;;9.60;;
30287;SDS011;17103;48.316;11.558;2022-10-31T08:18:13;21.52;;;16.60;;
30287;SDS011;17103;48.316;11.558;2022-10-31T08:20:41;19.95;;;15.38;;
30287;SDS011;17103;48.316;11.558;2022-10-31T08:23:08;10.75;;;8.10;;
30287;SDS011;17103;48.316;11.558;2022-10-31T08:25:36;9.57;;;5.45;;
30287;SDS011;17103;48.316;11.558;2022-10-31T08:28:05;6.20;;;4.47;;
30287;SDS011;17103;48.316;11.558;2022-10-31T08:30:34;5.72;;;3.80;;
30287;SDS011;17103;48.316;11.558;2022-10-31T08:33:05;7.38;;;3.58;;
30287;SDS011;17103;48.316;11.558;2022-10-31T08:35:39;7.07;;;4.07;;
30287;SDS011;17103;48.316;11.558;2022-10-31T08:38:18;7.50;;;3.70;;
30287;SDS011;17103;48.316;11.558;2022-10-31T08:40:47;5.10;;;3.40;;
30287;SDS011;17103;48.316;11.558;2022-10-31T08:43:15;6.30;;;4.13;;
30287;SDS011;17103;48.316;11.558;2022-10-31T08:45:43;8.90;;;4.00;;
30287;SDS011;17103;48.316;11.558;2022-10-31T08:48:14;6.85;;;3.75;;
30287;SDS011;17103;48.316;11.558;2022-10-31T08:50:44;7.80;;;3.40;;
30287;SDS011;17103;48.316;11.558;2022-10-31T08:53:15;9.45;;;3.08;;
30287;SDS011;17103;48.316;11.558;2022-10-31T08:55:43;7.85;;;4.03;;
30287;SDS011;17103;48.316;11.558;2022-10-31T08:58:12;6.68;;;4.47;;
30287;SDS011;17103;48.316;11.558;2022-10-31T09:00:43;8.57;;;4.80;;
30287;SDS011;17103;48.316;11.558;2022-10-31T09:03:13;7.30;;;4.90;;
30287;SDS011;17103;48.316;11.558;2022-10-31T09:05:42;6.47;;;3.67;;
30287;SDS011;17103;48.316;11.558;2022-10-31T09:08:09;10.55;;;5.00;;
30287;SDS011;17103;48.316;11.558;2022-10-31T09:10:36;9.88;;;4.63;;
30287;SDS011;17103;48.316;11.558;2022-10-31T09:13:06;9.95;;;5.00;;
30287;SDS011;17103;48.316;11.558;2022-10-31T09:15:39;11.98;;;5.30;;
30287;SDS011;17103;48.316;11.558;2022-10-31T09:18:07;9.98;;;5.18;;
30287;SDS011;17103;48.316;11.558;2022-10-31T09:20:34;9.15;;;5.07;;
30287;SDS011;17103;48.316;11.558;2022-10-31T09:23:11;8.55;;;4.68;;
30287;SDS011;17103;48.316;11.558;2022-10-31T09:25:38;11.70;;;5.35;;
30287;SDS011;17103;48.316;11.558;2022-10-31T09:28:04;10.60;;;5.63;;
30287;SDS011;17103;48.316;11.558;2022-10-31T09:30:32;11.27;;;5.88;;
30287;SDS011;17103;48.316;11.558;2022-10-31T09:33:02;6.60;;;5.35;;
30287;SDS011;17103;48.316;11.558;2022-10-31T09:35:32;6.60;;;4.20;;
30287;SDS011;17103;48.316;11.558;2022-10-31T09:37:59;10.52;;;5.55;;
30287;SDS011;17103;48.316;11.558;2022-10-31T09:51:38;7.40;;;4.35;;
30287;SDS011;17103;48.316;11.558;2022-10-31T09:54:25;9.50;;;3.95;;
30287;SDS011;17103;48.316;11.558;2022-10-31T09:59:34;9.60;;;3.80;;
30287;SDS011;17103;48.316;11.558;2022-10-31T10:02:27;12.55;;;4.43;;
30287;SDS011;17103;48.316;11.558;2022-10-31T10:13:26;9.30;;;4.93;;
30287;SDS011;17103;48.316;11.558;2022-10-31T10:21:46;6.95;;;3.83;;
30287;SDS011;17103;48.316;11.558;2022-10-31T10:27:38;8.18;;;3.65;;
30287;SDS011;17103;48.316;11.558;2022-10-31T10:33:02;9.90;;;3.92;;
30287;SDS011;17103;48.316;11.558;2022-10-31T10:35:35;8.85;;;4.43;;
30287;SDS011;17103;48.316;11.558;2022-10-31T10:38:16;9.77;;;4.82;;
30287;SDS011;17103;48.316;11.558;2022-10-31T10:41:01;9.32;;;3.97;;
30287;SDS011;17103;48.316;11.558;2022-10-31T10:43:35;9.65;;;4.13;;
30287;SDS011;17103;48.316;11.558;2022-10-31T10:48:59;6.15;;;2.70;;
30287;SDS011;17103;48.316;11.558;2022-10-31T10:59:32;9.43;;;3.72;;
30287;SDS011;17103;48.316;11.558;2022-10-31T11:01:59;7.30;;;3.60;;
30287;SDS011;17103;48.316;11.558;2022-10-31T11:04:33;6.35;;;3.80;;
30287;SDS011;17103;48.316;11.558;2022-10-31T11:07:10;9.25;;;3.88;;
30287;SDS011;17103;48.316;11.558;2022-10-31T11:09:37;6.63;;;2.92;;
30287;SDS011;17103;48.316;11.558;2022-10-31T11:14:55;12.93;;;4.05;;
30287;SDS011;17103;48.316;11.558;2022-10-31T11:17:27;10.45;;;4.38;;
30287;SDS011;17103;48.316;11.558;2022-10-31T11:20:16;5.53;;;3.10;;
30287;SDS011;17103;48.316;11.558;2022-10-31T11:23:00;6.45;;;2.92;;
30287;SDS011;17103;48.316;11.558;2022-10-31T11:25:54;6.45;;;2.70;;
30287;SDS011;17103;48.316;11.558;2022-10-31T11:28:22;7.65;;;4.13;;
30287;SDS011;17103;48.316;11.558;2022-10-31T11:30:50;6.18;;;3.08;;
30287;SDS011;17103;48.316;11.558;2022-10-31T11:35:56;7.93;;;3.50;;
30287;SDS011;17103;48.316;11.558;2022-10-31T11:38:47;5.43;;;3.25;;
30287;SDS011;17103;48.316;11.558;2022-10-31T11:41:18;5.05;;;3.30;;
30287;SDS011;17103;48.316;11.558;2022-10-31T11:43:57;7.80;;;3.25;;
30287;SDS011;17103;48.316;11.558;2022-10-31T11:46:38;7.35;;;3.40;;
30287;SDS011;17103;48.316;11.558;2022-10-31T11:49:35;7.25;;;3.38;;
30287;SDS011;17103;48.316;11.558;2022-10-31T11:52:06;7.03;;;3.00;;
30287;SDS011;17103;48.316;11.558;2022-10-31T11:54:53;10.73;;;3.30;;
30287;SDS011;17103;48.316;11.558;2022-10-31T11:57:28;8.57;;;3.92;;
30287;SDS011;17103;48.316;11.558;2022-10-31T11:59:58;9.05;;;3.38;;
30287;SDS011;17103;48.316;11.558;2022-10-31T12:02:26;7.95;;;3.50;;
30287;SDS011;17103;48.316;11.558;2022-10-31T12:07:27;6.97;;;2.97;;
30287;SDS011;17103;48.316;11.558;2022-10-31T12:09:53;7.60;;;3.35;;
30287;SDS011;17103;48.316;11.558;2022-10-31T12:12:39;11.65;;;3.50;;
30287;SDS011;17103;48.316;11.558;2022-10-31T12:15:27;10.15;;;3.25;;
30287;SDS011;17103;48.316;11.558;2022-10-31T12:18:17;10.55;;;3.60;;
30287;SDS011;17103;48.316;11.558;2022-10-31T12:20:53;8.35;;;4.07;;
30287;SDS011;17103;48.316;11.558;2022-10-31T12:35:09;6.32;;;3.85;;
30287;SDS011;17103;48.316;11.558;2022-10-31T12:43:52;7.60;;;3.78;;
30287;SDS011;17103;48.316;11.558;2022-10-31T13:00:00;9.18;;;3.35;;
30287;SDS011;17103;48.316;11.558;2022-10-31T13:10:48;6.10;;;3.55;;
30287;SDS011;17103;48.316;11.558;2022-10-31T13:13:40;7.40;;;3.58;;
30287;SDS011;17103;48.316;11.558;2022-10-31T13:16:11;9.27;;;4.28;;
30287;SDS011;17103;48.316;11.558;2022-10-31T13:18:51;5.68;;;3.63;;
30287;SDS011;17103;48.316;11.558;2022-10-31T13:21:23;7.72;;;3.88;;
30287;SDS011;17103;48.316;11.558;2022-10-31T13:23:59;11.45;;;3.80;;
30287;SDS011;17103;48.316;11.558;2022-10-31T13:31:54;8.60;;;4.47;;
30287;SDS011;17103;48.316;11.558;2022-10-31T13:34:23;10.98;;;4.72;;
30287;SDS011;17103;48.316;11.558;2022-10-31T13:39:49;10.75;;;5.07;;
30287;SDS011;17103;48.316;11.558;2022-10-31T13:42:26;10.60;;;5.50;;
30287;SDS011;17103;48.316;11.558;2022-10-31T13:45:18;10.90;;;4.60;;
30287;SDS011;17103;48.316;11.558;2022-10-31T13:50:43;11.02;;;4.75;;
30287;SDS011;17103;48.316;11.558;2022-10-31T13:53:21;17.52;;;5.60;;
30287;SDS011;17103;48.316;11.558;2022-10-31T13:56:02;11.05;;;5.10;;
30287;SDS011;17103;48.316;11.558;2022-10-31T13:58:34;11.70;;;5.57;;
30287;SDS011;17103;48.316;11.558;2022-10-31T14:03:39;9.32;;;5.90;;
30287;SDS011;17103;48.316;11.558;2022-10-31T14:06:06;12.50;;;5.80;;
30287;SDS011;17103;48.316;11.558;2022-10-31T14:08:35;9.60;;;5.22;;
30287;SDS011;17103;48.316;11.558;2022-10-31T14:11:17;15.32;;;6.15;;
30287;SDS011;17103;48.316;11.558;2022-10-31T14:14:08;12.65;;;5.50;;
30287;SDS011;17103;48.316;11.558;2022-10-31T14:16:53;8.82;;;5.57;;
30287;SDS011;17103;48.316;11.558;2022-10-31T14:19:21;12.35;;;5.68;;
30287;SDS011;17103;48.316;11.558;2022-10-31T14:21:48;10.07;;;5.65;;
30287;SDS011;17103;48.316;11.558;2022-10-31T14:26:54;12.35;;;6.05;;
30287;SDS011;17103;48.316;11.558;2022-10-31T14:29:30;12.30;;;6.22;;
30287;SDS011;17103;48.316;11.558;2022-10-31T14:35:09;12.10;;;5.25;;
30287;SDS011;17103;48.316;11.558;2022-10-31T14:37:48;12.45;;;5.65;;
30287;SDS011;17103;48.316;11.558;2022-10-31T14:40:24;12.82;;;6.18;;
30287;SDS011;17103;48.316;11.558;2022-10-31T14:43:12;12.98;;;4.88;;
30287;SDS011;17103;48.316;11.558;2022-10-31T14:48:44;9.02;;;5.05;;
30287;SDS011;17103;48.316;11.558;2022-10-31T14:51:36;13.13;;;5.15;;
30287;SDS011;17103;48.316;11.558;2022-10-31T14:54:06;9.95;;;5.43;;
30287;SDS011;17103;48.316;11.558;2022-10-31T14:59:13;10.45;;;5.35;;
30287;SDS011;17103;48.316;11.558;2022-10-31T15:01:48;13.95;;;6.30;;
30287;SDS011;17103;48.316;11.558;2022-10-31T15:04:26;10.50;;;5.47;;
30287;SDS011;17103;48.316;11.558;2022-10-31T15:07:15;10.60;;;6.05;;
30287;SDS011;17103;48.316;11.558;2022-10-31T15:09:42;14.25;;;5.22;;
30287;SDS011;17103;48.316;11.558;2022-10-31T15:12:28;8.60;;;5.47;;
30287;SDS011;17103;48.316;11.558;2022-10-31T15:15:22;8.55;;;5.13;;
30287;SDS011;17103;48.316;11.558;2022-10-31T15:17:48;8.30;;;5.38;;
30287;SDS011;17103;48.316;11.558;2022-10-31T15:20:19;10.13;;;5.00;;
30287;SDS011;17103;48.316;11.558;2022-10-31T15:22:48;15.13;;;6.40;;
30287;SDS011;17103;48.316;11.558;2022-10-31T15:25:19;10.27;;;5.40;;
30287;SDS011;17103;48.316;11.558;2022-10-31T15:27:47;11.77;;;5.53;;
30287;SDS011;17103;48.316;11.558;2022-10-31T15:32:44;12.07;;;5.78;;
30287;SDS011;17103;48.316;11.558;2022-10-31T15:35:18;12.27;;;6.60;;
30287;SDS011;17103;48.316;11.558;2022-10-31T15:37:52;13.15;;;6.28;;
30287;SDS011;17103;48.316;11.558;2022-10-31T15:40:21;14.43;;;5.40;;
30287;SDS011;17103;48.316;11.558;2022-10-31T15:42:56;9.73;;;5.05;;
30287;SDS011;17103;48.316;11.558;2022-10-31T15:45:26;9.00;;;6.00;;
30287;SDS011;17103;48.316;11.558;2022-10-31T15:51:08;8.20;;;4.95;;
30287;SDS011;17103;48.316;11.558;2022-10-31T15:53:17;10.63;;;4.80;;
30287;SDS011;17103;48.316;11.558;2022-10-31T15:55:59;11.63;;;5.40;;
30287;SDS011;17103;48.316;11.558;2022-10-31T16:01:06;11.13;;;6.38;;
30287;SDS011;17103;48.316;11.558;2022-10-31T16:03:44;11.13;;;5.78;;
30287;SDS011;17103;48.316;11.558;2022-10-31T16:06:21;10.38;;;5.57;;
30287;SDS011;17103;48.316;11.558;2022-10-31T16:08:55;13.55;;;6.25;;
30287;SDS011;17103;48.316;11.558;2022-10-31T16:14:05;11.85;;;5.43;;
30287;SDS011;17103;48.316;11.558;2022-10-31T16:16:47;8.38;;;6.18;;
30287;SDS011;17103;48.316;11.558;2022-10-31T16:19:18;7.47;;;5.60;;
30287;SDS011;17103;48.316;11.558;2022-10-31T16:21:50;10.13;;;5.95;;
30287;SDS011;17103;48.316;11.558;2022-10-31T16:24:33;9.95;;;5.60;;
30287;SDS011;17103;48.316;11.558;2022-10-31T16:27:06;10.52;;;4.85;;
30287;SDS011;17103;48.316;11.558;2022-10-31T16:29:45;7.20;;;5.20;;
30287;SDS011;17103;48.316;11.558;2022-10-31T16:34:57;9.15;;;6.03;;
30287;SDS011;17103;48.316;11.558;2022-10-31T16:37:38;8.98;;;5.60;;
30287;SDS011;17103;48.316;11.558;2022-10-31T16:40:05;14.63;;;9.13;;
30287;SDS011;17103;48.316;11.558;2022-10-31T16:42:32;16.23;;;11.80;;
30287;SDS011;17103;48.316;11.558;2022-10-31T16:44:58;17.30;;;10.48;;
30287;SDS011;17103;48.316;11.558;2022-10-31T16:47:25;21.73;;;13.40;;
30287;SDS011;17103;48.316;11.558;2022-10-31T16:49:50;14.23;;;8.13;;
30287;SDS011;17103;48.316;11.558;2022-10-31T16:52:17;15.65;;;8.77;;
30287;SDS011;17103;48.316;11.558;2022-10-31T16:54:43;12.52;;;10.20;;
30287;SDS011;17103;48.316;11.558;2022-10-31T16:57:12;9.95;;;6.85;;
30287;SDS011;17103;48.316;11.558;2022-10-31T16:59:52;9.50;;;6.93;;
30287;SDS011;17103;48.316;11.558;2022-10-31T17:02:22;10.95;;;7.45;;
30287;SDS011;17103;48.316;11.558;2022-10-31T17:04:48;17.83;;;10.82;;
30287;SDS011;17103;48.316;11.558;2022-10-31T17:07:14;21.95;;;14.25;;
30287;SDS011;17103;48.316;11.558;2022-10-31T17:09:39;17.10;;;11.10;;
30287;SDS011;17103;48.316;11.558;2022-10-31T17:12:05;15.35;;;9.15;;
30287;SDS011;17103;48.316;11.558;2022-10-31T17:14:36;13.02;;;7.45;;
30287;SDS011;17103;48.316;11.558;2022-10-31T17:17:02;13.13;;;6.70;;
30287;SDS011;17103;48.316;11.558;2022-10-31T17:19:28;11.25;;;6.50;;
30287;SDS011;17103;48.316;11.558;2022-10-31T17:21:53;11.13;;;7.00;;
30287;SDS011;17103;48.316;11.558;2022-10-31T17:24:19;10.10;;;6.43;;
30287;SDS011;17103;48.316;11.558;2022-10-31T17:26:45;14.18;;;7.22;;
30287;SDS011;17103;48.316;11.558;2022-10-31T17:29:14;12.60;;;7.60;;
30287;SDS011;17103;48.316;11.558;2022-10-31T17:31:39;16.17;;;10.13;;
30287;SDS011;17103;48.316;11.558;2022-10-31T17:34:06;17.73;;;10.77;;
30287;SDS011;17103;48.316;11.558;2022-10-31T17:36:33;15.30;;;9.43;;
30287;SDS011;17103;48.316;11.558;2022-10-31T17:39:00;13.10;;;9.02;;
30287;SDS011;17103;48.316;11.558;2022-10-31T17:41:27;13.20;;;9.05;;
30287;SDS011;17103;48.316;11.558;2022-10-31T17:43:56;20.73;;;10.60;;